Time;durP1;ratioP1;P1;durP2;ratioP2;P2;SDS_P1;SDS_P2;PMS_P1;PMS_P2;Temp;Humidity;BMP_temperature;BMP_pressure;BME280_temperature;BME280_humidity;BME280_pressure;Samples;Min_cycle;Max_cycle;Signal;HPM_P1;HPM_P2
2023/12/06 00:01:39;;;;;;;63.38;32.80;;;;;;;;;;4968278;28;20039;-84
2023/12/06 00:04:05;;;;;;;58.67;31.02;;;;;;;;;;4935714;28;20098;-83
2023/12/06 00:06:30;;;;;;;61.65;32.17;;;;;;;;;;4953946;28;20254;-84
2023/12/06 00:08:55;;;;;;;63.88;33.03;;;;;;;;;;4921649;28;20418;-84
2023/12/06 00:11:21;;;;;;;63.13;32.55;;;;;;;;;;4967944;28;20046;-85
2023/12/06 00:13:46;;;;;;;66.32;32.70;;;;;;;;;;4970440;28;20066;-84
2023/12/06 00:16:12;;;;;;;62.17;32.08;;;;;;;;;;4935951;29;20036;-85
2023/12/06 00:18:38;;;;;;;61.45;31.77;;;;;;;;;;4968781;28;20537;-82
2023/12/06 00:21:04;;;;;;;58.95;30.48;;;;;;;;;;4935207;28;20042;-84
2023/12/06 00:23:29;;;;;;;64.00;32.38;;;;;;;;;;4937300;28;20430;-84
2023/12/06 00:25:54;;;;;;;64.70;32.42;;;;;;;;;;4935833;28;20380;-84
2023/12/06 00:28:20;;;;;;;60.10;30.20;;;;;;;;;;4938695;28;20542;-84
2023/12/06 00:30:45;;;;;;;63.33;32.10;;;;;;;;;;4922052;28;20039;-84
2023/12/06 00:33:11;;;;;;;59.90;30.48;;;;;;;;;;4937883;28;20745;-85
2023/12/06 00:35:36;;;;;;;61.00;30.58;;;;;;;;;;4950625;28;20051;-84
2023/12/06 00:38:02;;;;;;;59.25;31.95;;;;;;;;;;4969786;28;20082;-84
2023/12/06 00:40:27;;;;;;;61.75;31.15;;;;;;;;;;4937690;28;20388;-84
2023/12/06 00:42:53;;;;;;;57.53;30.30;;;;;;;;;;4951279;28;20491;-85
2023/12/06 00:45:18;;;;;;;60.90;31.00;;;;;;;;;;4951996;28;20126;-84
2023/12/06 00:47:44;;;;;;;61.70;31.67;;;;;;;;;;4953892;28;20508;-84
2023/12/06 00:50:09;;;;;;;61.05;31.58;;;;;;;;;;4937927;28;20046;-85
2023/12/06 00:52:35;;;;;;;60.85;30.63;;;;;;;;;;4967280;28;20407;-85
2023/12/06 00:55:00;;;;;;;61.70;31.20;;;;;;;;;;4969123;28;20077;-84
2023/12/06 00:57:25;;;;;;;60.15;29.85;;;;;;;;;;4936123;28;20047;-84
2023/12/06 00:59:51;;;;;;;61.67;31.38;;;;;;;;;;4953418;28;20462;-84
2023/12/06 01:02:16;;;;;;;70.25;31.40;;;;;;;;;;4937729;29;20035;-84
2023/12/06 01:04:42;;;;;;;62.10;30.25;;;;;;;;;;4920700;28;20525;-84
2023/12/06 01:07:07;;;;;;;54.80;27.58;;;;;;;;;;4931690;28;20137;-84
2023/12/06 01:09:32;;;;;;;63.88;31.35;;;;;;;;;;4969031;28;20043;-84
2023/12/06 01:11:58;;;;;;;59.00;29.75;;;;;;;;;;4950202;28;20039;-84
2023/12/06 01:14:24;;;;;;;62.92;32.83;;;;;;;;;;4967705;28;20102;-85
2023/12/06 01:16:49;;;;;;;60.95;31.48;;;;;;;;;;4951984;28;20759;-85
2023/12/06 01:19:16;;;;;;;57.40;29.48;;;;;;;;;;4968250;28;20027;-84
2023/12/06 01:21:41;;;;;;;61.30;30.90;;;;;;;;;;4936351;28;20039;-84
2023/12/06 01:24:07;;;;;;;65.18;30.23;;;;;;;;;;4967883;28;20039;-84
2023/12/06 01:26:32;;;;;;;60.92;31.50;;;;;;;;;;4950820;28;20035;-84
2023/12/06 01:28:59;;;;;;;60.70;30.13;;;;;;;;;;4967070;28;20751;-84
2023/12/06 01:31:24;;;;;;;63.50;31.15;;;;;;;;;;4934471;28;20520;-85
2023/12/06 01:33:50;;;;;;;62.58;30.83;;;;;;;;;;4966069;28;20039;-84
2023/12/06 01:36:15;;;;;;;62.33;30.13;;;;;;;;;;4949194;28;20086;-84
2023/12/06 01:38:41;;;;;;;63.25;31.88;;;;;;;;;;4968326;28;20032;-84
2023/12/06 01:41:30;;;;;;;65.95;31.25;;;;;;;;;;4934145;28;20042;-84
2023/12/06 01:43:58;;;;;;;59.42;29.15;;;;;;;;;;4909551;29;20552;-85
2023/12/06 01:46:24;;;;;;;61.03;31.02;;;;;;;;;;4878433;29;20043;-84
2023/12/06 01:48:51;;;;;;;59.25;30.85;;;;;;;;;;4880077;29;20046;-84
2023/12/06 01:51:17;;;;;;;64.38;31.58;;;;;;;;;;4895996;29;20077;-85
2023/12/06 01:53:42;;;;;;;61.08;29.70;;;;;;;;;;4913327;29;20424;-85
2023/12/06 01:56:08;;;;;;;61.83;30.63;;;;;;;;;;4879487;29;20091;-85
2023/12/06 01:58:37;;;;;;;69.85;32.50;;;;;;;;;;4912401;29;20044;-84
2023/12/06 02:01:04;;;;;;;60.65;29.95;;;;;;;;;;4910046;29;20508;-84
2023/12/06 02:03:31;;;;;;;67.65;31.70;;;;;;;;;;4879401;29;20581;-85
2023/12/06 02:05:56;;;;;;;64.03;32.67;;;;;;;;;;4894657;29;20620;-84
2023/12/06 02:08:22;;;;;;;67.03;32.40;;;;;;;;;;4877260;29;20060;-84
2023/12/06 02:10:48;;;;;;;64.85;32.35;;;;;;;;;;4879931;29;20084;-84
2023/12/06 02:13:13;;;;;;;64.10;32.42;;;;;;;;;;4912052;29;20044;-85
2023/12/06 02:15:39;;;;;;;62.90;31.38;;;;;;;;;;4894957;29;20042;-84
2023/12/06 02:18:05;;;;;;;62.13;31.00;;;;;;;;;;4894965;29;20415;-84
2023/12/06 02:20:31;;;;;;;65.72;32.90;;;;;;;;;;4908645;28;20465;-84
2023/12/06 02:23:00;;;;;;;64.90;31.42;;;;;;;;;;4915324;28;20122;-84
2023/12/06 02:25:29;;;;;;;66.40;31.80;;;;;;;;;;4966005;28;20432;-84
2023/12/06 02:27:54;;;;;;;64.65;31.83;;;;;;;;;;4948204;28;20114;-84
2023/12/06 02:30:19;;;;;;;66.43;32.45;;;;;;;;;;4950733;28;20126;-84
2023/12/06 02:32:45;;;;;;;67.20;31.90;;;;;;;;;;4966407;28;20039;-84
2023/12/06 02:35:19;;;;;;;64.72;33.45;;;;;;;;;;4933424;28;20058;-84
2023/12/06 02:37:45;;;;;;;63.42;31.05;;;;;;;;;;4950045;28;20605;-84
2023/12/06 02:40:11;;;;;;;66.68;31.63;;;;;;;;;;4934903;28;20142;-84
2023/12/06 02:42:37;;;;;;;66.40;31.75;;;;;;;;;;4934634;28;20074;-84
2023/12/06 02:45:02;;;;;;;65.07;32.05;;;;;;;;;;4935114;28;20514;-84
2023/12/06 02:47:28;;;;;;;63.83;30.77;;;;;;;;;;4949813;28;20047;-83
2023/12/06 02:49:53;;;;;;;65.32;32.72;;;;;;;;;;4932988;28;20035;-84
2023/12/06 02:52:19;;;;;;;60.67;31.02;;;;;;;;;;4934630;28;20040;-84
2023/12/06 02:54:44;;;;;;;71.18;32.60;;;;;;;;;;4935468;29;20054;-84
2023/12/06 02:57:10;;;;;;;63.35;31.77;;;;;;;;;;4935636;28;20035;-84
2023/12/06 02:59:35;;;;;;;73.70;32.15;;;;;;;;;;4918516;28;20071;-83
2023/12/06 03:02:01;;;;;;;68.07;31.65;;;;;;;;;;4916529;28;20035;-84
2023/12/06 03:04:29;;;;;;;63.72;30.17;;;;;;;;;;4933402;28;20039;-83
2023/12/06 03:06:54;;;;;;;62.03;30.63;;;;;;;;;;4945560;28;20038;-84
2023/12/06 03:09:20;;;;;;;65.72;31.05;;;;;;;;;;4916649;28;20039;-84
2023/12/06 03:11:45;;;;;;;65.80;30.58;;;;;;;;;;4949088;28;20103;-83
2023/12/06 03:14:11;;;;;;;70.28;31.92;;;;;;;;;;4933243;28;20085;-83
2023/12/06 03:16:36;;;;;;;62.70;31.40;;;;;;;;;;4932209;28;20043;-83
2023/12/06 03:19:02;;;;;;;68.20;31.65;;;;;;;;;;4949918;28;20511;-83
2023/12/06 03:21:27;;;;;;;66.05;30.73;;;;;;;;;;4915475;28;20039;-83
2023/12/06 03:23:53;;;;;;;69.03;32.42;;;;;;;;;;4933466;28;20046;-83
2023/12/06 03:26:18;;;;;;;66.10;30.52;;;;;;;;;;4950082;28;20114;-84
2023/12/06 03:28:43;;;;;;;69.20;32.55;;;;;;;;;;4933117;28;20447;-84
2023/12/06 03:31:09;;;;;;;64.78;31.33;;;;;;;;;;4918373;28;20035;-84
2023/12/06 03:33:34;;;;;;;70.88;32.63;;;;;;;;;;4932010;28;20131;-83
2023/12/06 03:36:00;;;;;;;64.40;30.85;;;;;;;;;;4917294;28;20654;-83
2023/12/06 03:38:25;;;;;;;71.20;33.88;;;;;;;;;;4933253;28;20043;-83
2023/12/06 03:40:50;;;;;;;68.50;32.78;;;;;;;;;;4964059;28;20035;-83
2023/12/06 03:43:16;;;;;;;72.85;33.55;;;;;;;;;;4951198;28;20047;-83
2023/12/06 03:45:42;;;;;;;67.15;31.58;;;;;;;;;;4963228;28;20116;-83
2023/12/06 03:48:08;;;;;;;61.75;31.30;;;;;;;;;;4963823;28;20051;-83
2023/12/06 03:50:33;;;;;;;68.57;31.58;;;;;;;;;;4908062;28;20120;-82
2023/12/06 03:52:59;;;;;;;69.05;32.92;;;;;;;;;;4932670;28;20035;-84
2023/12/06 03:55:25;;;;;;;71.00;33.25;;;;;;;;;;4918220;28;20440;-83
2023/12/06 03:57:50;;;;;;;71.40;33.10;;;;;;;;;;4935533;28;20040;-83
2023/12/06 04:00:16;;;;;;;69.90;33.08;;;;;;;;;;4938672;28;20043;-84
2023/12/06 04:02:41;;;;;;;68.35;32.20;;;;;;;;;;4951356;28;20046;-83
2023/12/06 04:05:08;;;;;;;68.10;32.30;;;;;;;;;;4936062;28;20519;-83
2023/12/06 04:07:33;;;;;;;73.20;33.58;;;;;;;;;;4934107;28;20399;-84
2023/12/06 04:09:58;;;;;;;68.47;32.78;;;;;;;;;;4968145;28;20035;-83
2023/12/06 04:12:24;;;;;;;66.78;32.78;;;;;;;;;;4915766;28;20042;-84
2023/12/06 04:14:50;;;;;;;70.07;32.20;;;;;;;;;;4952325;28;20034;-83
2023/12/06 04:17:15;;;;;;;69.18;32.20;;;;;;;;;;4936615;28;20046;-84
2023/12/06 04:19:40;;;;;;;67.43;32.67;;;;;;;;;;4968214;28;20391;-83
2023/12/06 04:22:06;;;;;;;66.25;31.65;;;;;;;;;;4965880;28;20043;-84
2023/12/06 04:24:32;;;;;;;76.53;33.28;;;;;;;;;;4935151;28;20051;-83
2023/12/06 04:26:57;;;;;;;72.53;32.10;;;;;;;;;;4932881;28;20041;-83
2023/12/06 04:29:23;;;;;;;70.63;32.47;;;;;;;;;;4935991;28;20035;-83
2023/12/06 04:31:48;;;;;;;74.40;34.08;;;;;;;;;;4967356;28;20114;-83
2023/12/06 04:34:14;;;;;;;70.07;32.63;;;;;;;;;;4920768;28;20566;-83
2023/12/06 04:36:40;;;;;;;71.20;33.70;;;;;;;;;;4936103;28;20147;-83
2023/12/06 04:39:05;;;;;;;75.40;33.47;;;;;;;;;;4969671;28;20399;-83
2023/12/06 04:41:30;;;;;;;73.13;33.97;;;;;;;;;;4950058;28;20407;-83
2023/12/06 04:43:56;;;;;;;74.75;34.33;;;;;;;;;;4920697;28;20558;-83
2023/12/06 04:46:21;;;;;;;73.90;32.78;;;;;;;;;;4949603;28;20055;-82
2023/12/06 04:48:47;;;;;;;74.65;33.78;;;;;;;;;;4936635;28;20035;-83
2023/12/06 04:51:12;;;;;;;76.65;33.72;;;;;;;;;;4950478;28;20513;-84
2023/12/06 04:53:38;;;;;;;74.72;32.95;;;;;;;;;;4950479;28;20130;-83
2023/12/06 04:56:03;;;;;;;71.35;33.30;;;;;;;;;;4936005;28;20063;-83
2023/12/06 04:58:29;;;;;;;76.97;33.97;;;;;;;;;;4937255;28;20043;-82
2023/12/06 05:00:55;;;;;;;77.35;32.60;;;;;;;;;;4932905;28;20500;-83
2023/12/06 05:03:20;;;;;;;75.43;32.30;;;;;;;;;;4949149;28;20043;-84
2023/12/06 05:05:46;;;;;;;65.07;31.90;;;;;;;;;;4951442;28;20075;-82
2023/12/06 05:08:11;;;;;;;74.13;33.28;;;;;;;;;;4919989;28;20091;-84
2023/12/06 05:10:36;;;;;;;69.03;33.15;;;;;;;;;;4934403;28;20043;-86
2023/12/06 05:13:02;;;;;;;73.22;33.05;;;;;;;;;;4932316;28;20086;-79
2023/12/06 05:15:27;;;;;;;76.13;33.95;;;;;;;;;;4916061;28;20038;-79
2023/12/06 05:17:53;;;;;;;71.57;33.75;;;;;;;;;;4932161;28;20057;-79
2023/12/06 05:20:18;;;;;;;81.03;35.83;;;;;;;;;;4949639;28;20039;-79
2023/12/06 05:22:44;;;;;;;70.10;31.75;;;;;;;;;;4933252;28;20085;-77
2023/12/06 05:25:09;;;;;;;71.60;33.63;;;;;;;;;;4947653;28;20171;-87
2023/12/06 05:27:34;;;;;;;73.68;34.38;;;;;;;;;;4931821;29;20062;-83
2023/12/06 05:30:00;;;;;;;66.63;31.65;;;;;;;;;;4932841;28;20066;-84
2023/12/06 05:32:25;;;;;;;77.03;34.95;;;;;;;;;;4963027;28;20487;-83
2023/12/06 05:34:51;;;;;;;77.80;34.08;;;;;;;;;;4932544;28;20095;-83
2023/12/06 05:37:16;;;;;;;71.35;33.90;;;;;;;;;;4963297;28;20032;-83
2023/12/06 05:39:42;;;;;;;79.60;34.70;;;;;;;;;;4964119;28;20031;-84
2023/12/06 05:42:10;;;;;;;71.65;33.47;;;;;;;;;;4945233;28;20039;-83
2023/12/06 05:44:35;;;;;;;73.43;32.55;;;;;;;;;;4966068;28;20051;-83
2023/12/06 05:47:01;;;;;;;73.82;33.75;;;;;;;;;;4933047;28;20045;-83
2023/12/06 05:49:26;;;;;;;75.05;33.65;;;;;;;;;;4913203;28;20039;-81
2023/12/06 05:51:52;;;;;;;68.85;32.58;;;;;;;;;;4931016;28;20138;-78
2023/12/06 05:54:17;;;;;;;69.47;32.90;;;;;;;;;;4931798;28;20039;-79
2023/12/06 05:56:43;;;;;;;65.00;34.15;;;;;;;;;;4949535;28;20063;-79
2023/12/06 05:59:08;;;;;;;73.10;33.17;;;;;;;;;;4932230;28;20043;-79
2023/12/06 06:01:33;;;;;;;79.05;33.78;;;;;;;;;;4934357;28;20395;-81
2023/12/06 06:03:59;;;;;;;80.85;36.40;;;;;;;;;;4935187;28;20035;-81
2023/12/06 06:06:25;;;;;;;80.70;35.40;;;;;;;;;;4965891;28;20031;-80
2023/12/06 06:08:50;;;;;;;72.65;35.08;;;;;;;;;;4947792;28;20034;-78
2023/12/06 06:11:16;;;;;;;75.95;35.25;;;;;;;;;;4930929;28;20039;-79
2023/12/06 06:13:41;;;;;;;84.45;35.15;;;;;;;;;;4930893;28;20035;-79
2023/12/06 06:16:08;;;;;;;82.78;34.88;;;;;;;;;;4931947;28;20027;-78
2023/12/06 06:18:33;;;;;;;79.80;34.35;;;;;;;;;;4962731;28;20082;-79
2023/12/06 06:21:05;;;;;;;78.50;36.78;;;;;;;;;;4929830;28;20031;-78
2023/12/06 06:23:30;;;;;;;80.80;34.60;;;;;;;;;;4933068;28;20051;-79
2023/12/06 06:25:56;;;;;;;76.57;33.63;;;;;;;;;;4913899;28;20043;-80
2023/12/06 06:28:21;;;;;;;74.85;34.70;;;;;;;;;;4931954;28;20487;-80
2023/12/06 06:30:46;;;;;;;77.60;35.30;;;;;;;;;;4915758;28;20110;-79
2023/12/06 06:33:12;;;;;;;81.28;37.25;;;;;;;;;;4933538;28;20031;-82
2023/12/06 06:35:37;;;;;;;76.70;34.75;;;;;;;;;;4929944;28;20050;-78
2023/12/06 06:38:23;;;;;;;89.60;36.30;;;;;;;;;;4937179;28;20114;-78
2023/12/06 06:40:49;;;;;;;79.18;35.40;;;;;;;;;;4888457;29;20476;-79
2023/12/06 06:43:14;;;;;;;83.55;35.75;;;;;;;;;;4874919;29;20055;-78
2023/12/06 06:45:43;;;;;;;85.97;36.70;;;;;;;;;;4872544;29;20036;-78
2023/12/06 06:48:09;;;;;;;82.03;36.58;;;;;;;;;;4872181;29;20033;-80
2023/12/06 06:50:35;;;;;;;81.63;36.20;;;;;;;;;;4856627;29;20045;-79
2023/12/06 06:53:01;;;;;;;81.18;36.28;;;;;;;;;;4872841;29;20412;-78
2023/12/06 06:55:26;;;;;;;79.22;34.15;;;;;;;;;;4873336;29;20045;-78
2023/12/06 06:57:52;;;;;;;79.38;36.83;;;;;;;;;;4872676;29;20085;-77
2023/12/06 07:00:17;;;;;;;83.22;36.58;;;;;;;;;;4876721;29;20075;-77
2023/12/06 07:02:43;;;;;;;82.55;36.28;;;;;;;;;;4873403;29;20033;-77
2023/12/06 07:05:12;;;;;;;78.35;35.58;;;;;;;;;;4872350;29;20049;-78
2023/12/06 07:07:39;;;;;;;81.80;36.45;;;;;;;;;;4872202;29;20536;-77
2023/12/06 07:10:05;;;;;;;79.68;34.35;;;;;;;;;;4873291;29;20044;-78
2023/12/06 07:12:32;;;;;;;78.47;37.60;;;;;;;;;;4872872;29;20040;-78
2023/12/06 07:14:58;;;;;;;81.65;36.15;;;;;;;;;;4888425;29;20497;-77
2023/12/06 07:17:24;;;;;;;77.60;35.38;;;;;;;;;;4892647;28;20082;-78
2023/12/06 07:19:49;;;;;;;85.28;36.63;;;;;;;;;;4929963;28;20495;-79
2023/12/06 07:22:14;;;;;;;79.25;36.00;;;;;;;;;;4929587;29;20046;-78
2023/12/06 07:24:40;;;;;;;81.05;36.75;;;;;;;;;;4962808;28;20047;-77
2023/12/06 07:27:05;;;;;;;83.93;36.85;;;;;;;;;;4929746;28;20398;-78
2023/12/06 07:29:31;;;;;;;77.72;36.28;;;;;;;;;;4914120;28;20379;-77
2023/12/06 07:31:56;;;;;;;77.45;35.55;;;;;;;;;;4933216;28;20149;-78
2023/12/06 07:34:22;;;;;;;82.10;36.67;;;;;;;;;;4918990;28;20031;-79
2023/12/06 07:36:48;;;;;;;79.32;36.88;;;;;;;;;;4935145;28;20118;-77
2023/12/06 07:39:16;;;;;;;85.13;37.03;;;;;;;;;;4933685;29;20118;-79
2023/12/06 07:41:42;;;;;;;85.10;36.08;;;;;;;;;;4934658;28;20043;-79
2023/12/06 07:44:07;;;;;;;85.28;38.00;;;;;;;;;;4932760;28;20035;-77
2023/12/06 07:46:33;;;;;;;78.60;36.05;;;;;;;;;;4965350;28;20066;-77
2023/12/06 07:48:58;;;;;;;70.95;33.63;;;;;;;;;;4966869;28;20035;-81
2023/12/06 07:51:23;;;;;;;78.13;37.03;;;;;;;;;;4935197;28;20035;-78
2023/12/06 07:53:51;;;;;;;80.00;35.50;;;;;;;;;;4918505;28;20042;-79
2023/12/06 07:56:16;;;;;;;77.10;37.10;;;;;;;;;;4928363;28;20459;-78
2023/12/06 07:58:42;;;;;;;82.57;37.15;;;;;;;;;;4946483;28;20134;-79
2023/12/06 08:01:07;;;;;;;79.07;35.28;;;;;;;;;;4966074;28;20082;-80
2023/12/06 08:03:33;;;;;;;87.93;37.20;;;;;;;;;;4964509;28;20060;-81
2023/12/06 08:06:00;;;;;;;79.85;34.90;;;;;;;;;;4934079;28;20077;-78
2023/12/06 08:08:27;;;;;;;77.03;36.03;;;;;;;;;;4949640;28;20111;-78
2023/12/06 08:10:53;;;;;;;83.05;36.95;;;;;;;;;;4965234;28;20547;-79
2023/12/06 08:13:18;;;;;;;82.90;36.30;;;;;;;;;;4933915;29;20070;-78
2023/12/06 08:15:44;;;;;;;80.80;36.20;;;;;;;;;;4948295;28;20035;-78
2023/12/06 08:18:09;;;;;;;81.32;35.88;;;;;;;;;;4936363;28;20094;-77
2023/12/06 08:20:35;;;;;;;82.28;37.08;;;;;;;;;;4947054;28;20053;-80
2023/12/06 08:23:02;;;;;;;84.15;35.63;;;;;;;;;;4933398;28;20051;-78
2023/12/06 08:25:27;;;;;;;84.88;36.20;;;;;;;;;;4965006;28;20039;-80
2023/12/06 08:27:53;;;;;;;78.15;34.67;;;;;;;;;;4934246;28;20043;-78
2023/12/06 08:30:18;;;;;;;76.45;34.25;;;;;;;;;;4934439;28;20035;-79
2023/12/06 08:32:43;;;;;;;73.25;34.38;;;;;;;;;;4948392;28;20039;-77
2023/12/06 08:35:09;;;;;;;73.82;34.05;;;;;;;;;;4933289;28;20043;-78
2023/12/06 08:37:34;;;;;;;79.90;35.55;;;;;;;;;;4965245;28;20043;-78
2023/12/06 08:40:00;;;;;;;78.20;36.22;;;;;;;;;;4916768;28;20107;-78
2023/12/06 08:42:25;;;;;;;73.45;34.45;;;;;;;;;;4932452;28;20047;-78
2023/12/06 08:44:53;;;;;;;72.03;33.88;;;;;;;;;;4963582;28;20499;-79
2023/12/06 08:47:18;;;;;;;;;;;;;;;;;;4933795;28;20058;-79
2023/12/06 08:49:43;;;;;;;73.95;34.20;;;;;;;;;;4930630;28;19918;-78
2023/12/06 08:52:10;;;;;;;76.57;33.67;;;;;;;;;;4962983;28;20077;-79
2023/12/06 08:54:37;;;;;;;74.75;34.50;;;;;;;;;;4917338;28;20087;-79
2023/12/06 08:57:03;;;;;;;77.32;35.42;;;;;;;;;;4932298;28;20066;-79
2023/12/06 08:59:29;;;;;;;75.60;32.88;;;;;;;;;;4964968;28;20518;-78
2023/12/06 09:01:54;;;;;;;74.88;34.13;;;;;;;;;;4913510;28;20435;-78
2023/12/06 09:04:20;;;;;;;72.15;33.75;;;;;;;;;;4964420;28;20045;-79
2023/12/06 09:06:45;;;;;;;70.05;33.88;;;;;;;;;;4949392;28;20082;-78
2023/12/06 09:09:11;;;;;;;76.90;33.80;;;;;;;;;;4929521;28;20638;-78
2023/12/06 09:11:37;;;;;;;74.82;34.45;;;;;;;;;;4944851;28;20463;-78
2023/12/06 09:14:02;;;;;;;70.97;33.97;;;;;;;;;;4930613;28;20046;-79
2023/12/06 09:16:28;;;;;;;77.82;35.10;;;;;;;;;;4932157;28;20057;-78
2023/12/06 09:18:53;;;;;;;69.00;32.72;;;;;;;;;;4945506;28;20032;-78
2023/12/06 09:21:19;;;;;;;67.60;32.35;;;;;;;;;;4961671;28;20027;-79
2023/12/06 09:23:44;;;;;;;72.90;32.90;;;;;;;;;;4933877;28;20043;-77
2023/12/06 09:26:10;;;;;;;70.57;33.60;;;;;;;;;;4919931;28;20039;-78
2023/12/06 09:28:36;;;;;;;68.65;32.63;;;;;;;;;;4932483;28;20057;-79
2023/12/06 09:31:03;;;;;;;67.10;32.33;;;;;;;;;;4964716;28;20571;-78
2023/12/06 09:33:29;;;;;;;73.28;34.35;;;;;;;;;;4948814;28;20038;-77
2023/12/06 09:35:55;;;;;;;74.70;33.93;;;;;;;;;;4935114;28;20059;-78
2023/12/06 09:38:22;;;;;;;70.97;32.78;;;;;;;;;;4964231;28;20059;-78
2023/12/06 09:40:48;;;;;;;68.85;33.08;;;;;;;;;;4946742;28;20043;-78
2023/12/06 09:43:13;;;;;;;75.63;32.58;;;;;;;;;;4964723;28;20035;-78
2023/12/06 09:45:40;;;;;;;73.53;33.47;;;;;;;;;;4931158;28;20059;-79
2023/12/06 09:48:05;;;;;;;70.88;33.58;;;;;;;;;;4947716;28;20039;-79
2023/12/06 09:50:31;;;;;;;74.93;33.08;;;;;;;;;;4931990;28;20566;-78
2023/12/06 09:52:56;;;;;;;75.70;34.28;;;;;;;;;;4931033;28;20086;-77
2023/12/06 09:55:26;;;;;;;69.15;32.90;;;;;;;;;;4931772;28;20039;-78
2023/12/06 09:57:52;;;;;;;72.25;32.70;;;;;;;;;;4932021;28;20062;-79
2023/12/06 10:00:18;;;;;;;78.35;35.00;;;;;;;;;;4915927;29;20141;-78
2023/12/06 10:02:51;;;;;;;81.50;36.00;;;;;;;;;;4946678;28;20035;-78
2023/12/06 10:05:16;;;;;;;77.78;34.70;;;;;;;;;;4963456;28;20047;-77
2023/12/06 10:07:42;;;;;;;75.35;33.25;;;;;;;;;;4945674;28;20043;-77
2023/12/06 10:10:17;;;;;;;71.75;33.17;;;;;;;;;;4931952;28;20102;-78
2023/12/06 10:12:53;;;;;;;77.10;32.10;;;;;;;;;;4944777;28;20496;-78
2023/12/06 10:15:20;;;;;;;75.05;33.25;;;;;;;;;;4930974;29;20487;-78
2023/12/06 10:17:46;;;;;;;69.88;34.30;;;;;;;;;;4962870;28;20035;-76
2023/12/06 10:20:32;;;;;;;71.65;33.30;;;;;;;;;;4932830;28;20039;-78
2023/12/06 10:22:57;;;;;;;69.88;32.30;;;;;;;;;;4874338;29;20408;-78
2023/12/06 10:25:23;;;;;;;72.50;33.53;;;;;;;;;;4875725;29;20056;-77
2023/12/06 10:27:48;;;;;;;65.63;31.45;;;;;;;;;;4876988;29;20043;-78
2023/12/06 10:30:20;;;;;;;68.20;31.55;;;;;;;;;;4889808;29;20498;-77
2023/12/06 10:32:46;;;;;;;71.10;31.77;;;;;;;;;;4895418;29;20095;-77
2023/12/06 10:35:12;;;;;;;65.75;32.22;;;;;;;;;;4892421;29;20774;-78
2023/12/06 10:37:38;;;;;;;70.75;30.77;;;;;;;;;;4891199;29;20075;-77
2023/12/06 10:40:11;;;;;;;72.55;32.53;;;;;;;;;;4894214;29;20400;-77
2023/12/06 10:42:38;;;;;;;66.78;31.52;;;;;;;;;;4875819;29;20044;-77
2023/12/06 10:45:05;;;;;;;69.55;31.52;;;;;;;;;;4877272;29;20085;-77
2023/12/06 10:47:31;;;;;;;66.57;30.42;;;;;;;;;;4878438;29;20131;-77
2023/12/06 10:49:57;;;;;;;63.53;31.67;;;;;;;;;;4875334;29;20044;-78
2023/12/06 10:52:23;;;;;;;68.15;31.33;;;;;;;;;;4873761;29;20366;-78
2023/12/06 10:54:49;;;;;;;68.30;31.00;;;;;;;;;;4893293;29;20702;-77
2023/12/06 10:57:15;;;;;;;69.63;31.30;;;;;;;;;;4876172;29;20047;-78
2023/12/06 10:59:43;;;;;;;59.97;30.48;;;;;;;;;;4896227;28;20223;-78
2023/12/06 11:02:10;;;;;;;58.92;29.85;;;;;;;;;;4945765;28;20027;-77
2023/12/06 11:04:41;;;;;;;64.45;29.70;;;;;;;;;;4946619;28;20505;-77
2023/12/06 11:07:31;;;;;;;62.75;30.75;;;;;;;;;;4961821;28;20388;-77
2023/12/06 11:09:56;;;;;;;66.63;30.15;;;;;;;;;;4946170;28;20039;-78
2023/12/06 11:12:40;;;;;;;68.57;30.98;;;;;;;;;;4947204;28;20710;-78
2023/12/06 11:15:16;;;;;;;61.80;30.88;;;;;;;;;;4945924;28;20035;-79
2023/12/06 11:18:08;;;;;;;69.72;31.65;;;;;;;;;;4962125;28;20480;-78
2023/12/06 11:20:33;;;;;;;63.38;29.50;;;;;;;;;;4937591;28;20043;-78
2023/12/06 11:22:59;;;;;;;60.67;28.80;;;;;;;;;;4946616;28;20094;-78
2023/12/06 11:25:24;;;;;;;68.68;31.27;;;;;;;;;;4930856;28;20668;-78
2023/12/06 11:27:50;;;;;;;63.65;30.73;;;;;;;;;;4961754;28;20090;-79
2023/12/06 11:30:19;;;;;;;66.50;31.90;;;;;;;;;;4930648;29;20047;-77
2023/12/06 11:32:45;;;;;;;58.53;28.35;;;;;;;;;;4946170;28;20036;-78
2023/12/06 11:35:11;;;;;;;65.97;30.70;;;;;;;;;;4962266;28;20502;-78
2023/12/06 11:37:37;;;;;;;67.03;31.80;;;;;;;;;;4961529;28;20054;-79
2023/12/06 11:40:12;;;;;;;70.55;31.95;;;;;;;;;;4930202;28;20031;-78
2023/12/06 11:42:38;;;;;;;66.03;31.27;;;;;;;;;;4944050;28;20193;-78
2023/12/06 11:45:39;;;;;;;68.70;31.08;;;;;;;;;;4963824;28;20072;-79
2023/12/06 11:48:25;;;;;;;63.38;30.42;;;;;;;;;;4913697;28;20266;-79
2023/12/06 11:50:52;;;;;;;58.67;28.98;;;;;;;;;;4868470;29;20037;-79
2023/12/06 11:53:19;;;;;;;59.90;30.00;;;;;;;;;;4872593;29;20782;-78
2023/12/06 11:55:45;;;;;;;67.60;30.95;;;;;;;;;;4854312;29;20041;-78
2023/12/06 11:58:12;;;;;;;59.80;29.90;;;;;;;;;;4853523;29;20947;-79
2023/12/06 12:00:44;;;;;;;64.63;30.20;;;;;;;;;;4838926;29;20045;-77
2023/12/06 12:03:10;;;;;;;64.93;31.05;;;;;;;;;;4870211;29;20052;-80
2023/12/06 12:05:36;;;;;;;65.82;30.63;;;;;;;;;;4837709;29;20135;-79
2023/12/06 12:08:02;;;;;;;67.43;31.35;;;;;;;;;;4836600;29;20141;-77
2023/12/06 12:10:28;;;;;;;64.47;30.52;;;;;;;;;;4853162;29;20037;-78
2023/12/06 12:12:54;;;;;;;65.22;31.27;;;;;;;;;;4853343;29;20509;-78
2023/12/06 12:15:19;;;;;;;69.75;31.45;;;;;;;;;;4854489;29;20041;-78
2023/12/06 12:17:45;;;;;;;66.65;30.83;;;;;;;;;;4887430;29;20563;-78
2023/12/06 12:20:12;;;;;;;65.60;31.63;;;;;;;;;;4844264;29;20037;-78
2023/12/06 12:22:44;;;;;;;69.35;31.65;;;;;;;;;;4842349;29;20093;-78
2023/12/06 12:25:09;;;;;;;62.00;30.85;;;;;;;;;;4857831;29;20378;-78
2023/12/06 12:27:34;;;;;;;70.20;32.38;;;;;;;;;;4867497;28;20042;-78
2023/12/06 12:30:00;;;;;;;69.35;30.42;;;;;;;;;;4945819;28;20153;-79
2023/12/06 12:32:27;;;;;;;69.65;30.48;;;;;;;;;;4928846;28;20035;-78
2023/12/06 12:34:52;;;;;;;63.33;30.35;;;;;;;;;;4930375;28;20038;-78
2023/12/06 12:37:18;;;;;;;71.05;32.42;;;;;;;;;;4913548;29;20043;-79
2023/12/06 12:39:45;;;;;;;68.05;31.75;;;;;;;;;;4929683;28;20568;-77
2023/12/06 12:42:11;;;;;;;66.75;31.58;;;;;;;;;;4928877;28;20032;-79
2023/12/06 12:44:36;;;;;;;73.10;31.95;;;;;;;;;;4913836;28;20036;-78
2023/12/06 12:47:02;;;;;;;74.13;31.35;;;;;;;;;;4929262;28;20034;-79
2023/12/06 12:49:28;;;;;;;63.38;28.83;;;;;;;;;;4929747;28;20042;-79
2023/12/06 12:51:54;;;;;;;71.20;30.85;;;;;;;;;;4912500;28;20039;-78
2023/12/06 12:54:23;;;;;;;66.45;31.55;;;;;;;;;;4945332;28;20024;-79
2023/12/06 12:56:48;;;;;;;72.53;34.25;;;;;;;;;;4932400;29;20936;-78
2023/12/06 12:59:17;;;;;;;66.65;31.75;;;;;;;;;;4964153;28;20114;-79
2023/12/06 13:01:44;;;;;;;69.30;31.08;;;;;;;;;;4931740;28;20467;-79
2023/12/06 13:04:10;;;;;;;70.47;31.97;;;;;;;;;;4964360;28;20039;-78
2023/12/06 13:06:36;;;;;;;66.10;30.88;;;;;;;;;;4932625;28;20459;-77
2023/12/06 13:09:02;;;;;;;72.28;31.13;;;;;;;;;;4934635;28;20122;-78
2023/12/06 13:11:29;;;;;;;69.35;31.58;;;;;;;;;;4946241;28;20031;-78
2023/12/06 13:13:54;;;;;;;65.20;30.13;;;;;;;;;;4964191;28;20037;-78
2023/12/06 13:16:21;;;;;;;69.82;31.50;;;;;;;;;;4948377;28;20113;-80
2023/12/06 13:18:47;;;;;;;68.13;30.95;;;;;;;;;;4937316;28;20444;-78
2023/12/06 13:21:12;;;;;;;65.03;30.52;;;;;;;;;;4916796;28;20121;-79
2023/12/06 13:23:38;;;;;;;63.30;30.23;;;;;;;;;;4932292;29;20460;-79
2023/12/06 13:26:03;;;;;;;69.10;31.60;;;;;;;;;;4948015;28;20054;-78
2023/12/06 13:28:29;;;;;;;70.47;31.17;;;;;;;;;;4964868;28;20050;-79
2023/12/06 13:30:54;;;;;;;71.57;31.73;;;;;;;;;;4947834;28;20451;-80
2023/12/06 13:33:20;;;;;;;67.75;30.38;;;;;;;;;;4944994;28;20047;-79
2023/12/06 13:35:45;;;;;;;65.10;30.52;;;;;;;;;;4932792;28;20048;-78
2023/12/06 13:38:10;;;;;;;66.18;30.13;;;;;;;;;;4963977;28;20031;-79
2023/12/06 13:40:37;;;;;;;70.10;32.28;;;;;;;;;;4947904;28;20470;-80
2023/12/06 13:43:03;;;;;;;70.40;31.45;;;;;;;;;;4915533;28;20099;-79
2023/12/06 13:45:28;;;;;;;70.38;30.95;;;;;;;;;;4964859;28;20047;-79
2023/12/06 13:47:54;;;;;;;73.95;32.67;;;;;;;;;;4963715;28;20608;-79
2023/12/06 13:50:20;;;;;;;72.97;31.45;;;;;;;;;;4947261;28;20034;-78
2023/12/06 13:52:45;;;;;;;74.82;31.20;;;;;;;;;;4930969;28;20035;-78
2023/12/06 13:55:10;;;;;;;73.10;30.90;;;;;;;;;;4928488;28;20819;-78
2023/12/06 13:57:36;;;;;;;74.35;31.27;;;;;;;;;;4928631;28;20551;-78
2023/12/06 14:00:05;;;;;;;70.82;30.85;;;;;;;;;;4913235;28;20122;-78
2023/12/06 14:02:31;;;;;;;76.43;32.30;;;;;;;;;;4915332;28;20046;-78
2023/12/06 14:04:56;;;;;;;72.40;30.67;;;;;;;;;;4935469;28;20039;-79
2023/12/06 14:07:22;;;;;;;69.43;29.73;;;;;;;;;;4927713;28;20036;-79
2023/12/06 14:09:47;;;;;;;77.00;30.92;;;;;;;;;;4928866;29;20039;-78
2023/12/06 14:12:12;;;;;;;71.82;30.45;;;;;;;;;;4927665;28;20122;-78
2023/12/06 14:14:39;;;;;;;75.55;31.80;;;;;;;;;;4911806;28;20154;-78